Time;durP1;ratioP1;P1;durP2;ratioP2;P2;SDS_P1;SDS_P2;PMS_P1;PMS_P2;Temp;Humidity;BMP_temperature;BMP_pressure;BME280_temperature;BME280_humidity;BME280_pressure;Samples;Min_cycle;Max_cycle;Signal;HPM_P1;HPM_P2
2020/12/02 00:00:26;;;;;;;17.95;9.77;;;4.70;99.90;;;;;;5032447;28;20033;-93
2020/12/02 00:03:19;;;;;;;22.60;10.23;;;4.70;99.90;;;;;;5032064;28;20529;-91
2020/12/02 00:05:48;;;;;;;21.75;9.75;;;4.80;99.90;;;;;;5032501;28;20037;-94
2020/12/02 00:08:22;;;;;;;22.25;9.38;;;4.70;99.90;;;;;;5033482;28;20087;-93
2020/12/02 00:10:48;;;;;;;20.70;8.65;;;4.80;99.90;;;;;;5032195;28;20025;-93
2020/12/02 00:13:22;;;;;;;20.20;9.32;;;4.70;99.90;;;;;;5032495;28;20025;-92
2020/12/02 00:15:48;;;;;;;19.08;9.55;;;4.70;99.90;;;;;;5033519;28;20514;-93
2020/12/02 00:18:14;;;;;;;20.60;10.25;;;4.70;99.90;;;;;;5046401;28;20017;-93
2020/12/02 00:20:40;;;;;;;23.67;9.43;;;4.70;99.90;;;;;;5047474;28;20087;-93
2020/12/02 00:23:05;;;;;;;25.33;9.70;;;4.70;99.90;;;;;;5037546;28;20041;-92
2020/12/02 00:25:31;;;;;;;19.55;8.50;;;4.70;99.90;;;;;;5035467;28;20041;-92
2020/12/02 00:28:09;;;;;;;22.90;9.57;;;4.70;99.90;;;;;;5034099;28;20108;-94
2020/12/02 00:30:35;;;;;;;23.40;9.05;;;4.70;99.90;;;;;;5034180;28;20674;-92
2020/12/02 00:33:26;;;;;;;18.95;8.63;;;4.70;99.90;;;;;;5033139;28;20033;-92
2020/12/02 00:35:53;;;;;;;21.65;10.00;;;4.70;99.90;;;;;;5033477;28;20040;-94
2020/12/02 00:38:21;;;;;;;21.30;10.00;;;4.60;99.90;;;;;;5033580;28;20028;-93
2020/12/02 00:40:47;;;;;;;26.85;10.30;;;4.60;99.90;;;;;;5032629;28;20033;-94
2020/12/02 00:43:23;;;;;;;31.02;10.10;;;4.60;99.90;;;;;;5036026;28;20029;-92
2020/12/02 00:45:50;;;;;;;22.92;9.82;;;4.60;99.90;;;;;;5037920;28;20029;-94
2020/12/02 00:48:19;;;;;;;21.15;9.05;;;4.60;99.90;;;;;;5021926;28;20386;-91
2020/12/02 00:50:45;;;;;;;26.63;10.10;;;4.50;99.90;;;;;;5037874;28;20083;-92
2020/12/02 00:53:14;;;;;;;26.73;10.07;;;4.60;99.90;;;;;;5039338;28;20021;-94
2020/12/02 00:55:43;;;;;;;26.23;11.30;;;4.60;99.90;;;;;;5038265;28;20057;-94
2020/12/02 00:58:37;;;;;;;21.95;10.68;;;4.60;99.90;;;;;;5037946;28;20041;-92
2020/12/02 01:01:07;;;;;;;24.63;10.10;;;4.60;99.90;;;;;;5006053;28;20033;-93
2020/12/02 01:03:34;;;;;;;22.98;9.95;;;4.60;99.90;;;;;;5036939;28;20024;-94
2020/12/02 01:06:01;;;;;;;24.52;10.15;;;4.50;99.90;;;;;;5035890;28;20042;-94
2020/12/02 01:08:31;;;;;;;22.35;9.27;;;4.50;99.90;;;;;;5035875;28;20030;-92
2020/12/02 01:11:07;;;;;;;24.10;10.35;;;4.50;99.90;;;;;;5035667;28;20083;-91
2020/12/02 01:13:35;;;;;;;23.73;8.40;;;4.50;99.90;;;;;;5036183;28;20033;-93
2020/12/02 01:16:11;;;;;;;21.30;8.52;;;4.50;99.90;;;;;;5035846;28;20032;-93
2020/12/02 01:18:37;;;;;;;22.48;8.85;;;4.50;99.90;;;;;;5035537;28;20120;-93
2020/12/02 01:21:16;;;;;;;18.90;8.27;;;4.50;99.90;;;;;;5037913;28;20064;-95
2020/12/02 01:23:52;;;;;;;20.85;7.97;;;4.50;99.90;;;;;;5040055;28;20024;-94
2020/12/02 01:26:19;;;;;;;16.83;7.35;;;4.50;99.90;;;;;;5040838;28;20042;-93
2020/12/02 01:28:47;;;;;;;14.90;7.18;;;4.60;99.90;;;;;;5039437;28;20025;-94
2020/12/02 01:31:13;;;;;;;20.23;7.75;;;4.60;99.90;;;;;;5035860;28;20033;-92
2020/12/02 01:33:39;;;;;;;16.67;6.65;;;4.60;99.90;;;;;;5034713;28;20557;-91
2020/12/02 01:36:07;;;;;;;16.75;7.40;;;4.60;99.90;;;;;;5035077;28;20060;-91
2020/12/02 01:38:38;;;;;;;16.60;6.95;;;4.60;99.90;;;;;;5034704;28;20025;-92
2020/12/02 01:41:04;;;;;;;18.38;7.57;;;4.60;99.90;;;;;;5034967;28;20039;-92
2020/12/02 01:43:30;;;;;;;18.83;7.70;;;4.60;99.90;;;;;;5034980;28;20529;-93
2020/12/02 01:46:04;;;;;;;15.90;7.53;;;4.60;99.90;;;;;;5034762;28;20065;-91
2020/12/02 01:48:57;;;;;;;18.67;7.97;;;4.60;99.90;;;;;;5034758;28;20021;-92
2020/12/02 01:51:22;;;;;;;19.67;7.43;;;4.60;99.90;;;;;;5034373;28;20159;-92
2020/12/02 01:54:10;;;;;;;27.60;7.82;;;4.60;99.90;;;;;;5034049;28;20064;-91
2020/12/02 01:56:59;;;;;;;16.27;7.05;;;4.60;99.90;;;;;;5017907;28;20022;-92
2020/12/02 02:00:04;;;;;;;16.20;7.18;;;4.60;99.90;;;;;;5012605;28;20061;-92
2020/12/02 02:02:42;;;;;;;22.25;8.23;;;4.60;99.90;;;;;;5034538;28;20514;-92
2020/12/02 02:05:19;;;;;;;19.52;7.85;;;4.60;99.90;;;;;;5034214;28;20526;-92
2020/12/02 02:07:45;;;;;;;17.88;7.38;;;4.60;99.90;;;;;;5034204;28;20483;-91
2020/12/02 02:10:16;;;;;;;20.23;7.90;;;4.60;99.90;;;;;;5034119;28;20029;-91
2020/12/02 02:12:45;;;;;;;17.63;7.32;;;4.60;99.90;;;;;;5033760;28;20079;-92
2020/12/02 02:15:23;;;;;;;19.10;7.93;;;4.60;99.90;;;;;;5033784;28;20025;-91
2020/12/02 02:17:59;;;;;;;21.98;7.72;;;4.60;99.90;;;;;;5033910;28;20026;-91
2020/12/02 02:20:29;;;;;;;16.83;7.65;;;4.60;99.90;;;;;;5034143;28;20116;-92
2020/12/02 02:22:55;;;;;;;19.33;7.65;;;4.60;99.90;;;;;;5033941;28;20475;-91
2020/12/02 02:25:21;;;;;;;23.35;8.77;;;4.60;99.90;;;;;;5035213;28;20041;-92
2020/12/02 02:27:48;;;;;;;20.20;8.02;;;4.60;99.90;;;;;;5034624;28;20025;-92
2020/12/02 02:30:15;;;;;;;17.55;7.88;;;4.60;99.90;;;;;;5034713;28;20075;-91
2020/12/02 02:32:41;;;;;;;20.27;8.07;;;4.60;99.90;;;;;;5033472;28;20025;-91
2020/12/02 02:35:07;;;;;;;17.13;7.50;;;4.60;99.90;;;;;;5032940;28;20041;-91
2020/12/02 02:37:33;;;;;;;16.67;7.07;;;4.60;99.90;;;;;;5033182;28;20120;-91
2020/12/02 02:40:01;;;;;;;18.98;6.68;;;4.70;99.90;;;;;;5035573;28;20562;-93
2020/12/02 02:42:34;;;;;;;21.20;7.10;;;4.70;99.90;;;;;;5050361;28;20124;-92
2020/12/02 02:45:05;;;;;;;20.08;7.25;;;4.70;99.90;;;;;;5037180;28;20030;-92
2020/12/02 02:47:32;;;;;;;25.80;7.25;;;4.70;99.90;;;;;;5035204;28;20072;-91
2020/12/02 02:49:57;;;;;;;20.80;6.07;;;4.70;99.90;;;;;;5033608;28;20032;-91
2020/12/02 02:52:24;;;;;;;25.80;6.93;;;4.80;99.90;;;;;;5033699;28;20025;-91
2020/12/02 02:54:50;;;;;;;25.85;7.07;;;4.80;99.90;;;;;;5033648;28;20180;-91
2020/12/02 02:57:15;;;;;;;25.70;7.50;;;4.80;99.90;;;;;;5033165;28;20079;-92
2020/12/02 02:59:41;;;;;;;30.58;8.32;;;4.80;99.90;;;;;;5032833;28;20092;-91
2020/12/02 03:02:11;;;;;;;29.83;8.25;;;4.80;99.90;;;;;;5032860;28;20021;-91
2020/12/02 03:04:37;;;;;;;23.98;8.73;;;4.80;99.90;;;;;;5032744;28;20021;-93
2020/12/02 03:07:04;;;;;;;18.40;6.95;;;4.80;99.90;;;;;;5032438;28;20076;-93
2020/12/02 03:09:30;;;;;;;31.13;8.35;;;4.80;99.90;;;;;;5032721;28;20064;-91
2020/12/02 03:11:56;;;;;;;31.30;8.88;;;4.90;99.90;;;;;;5032465;28;20025;-92
2020/12/02 03:14:22;;;;;;;22.80;6.57;;;4.90;99.90;;;;;;5032901;28;20079;-92
2020/12/02 03:16:53;;;;;;;26.00;8.23;;;4.90;99.90;;;;;;5032878;28;20018;-91
2020/12/02 03:19:31;;;;;;;29.20;8.80;;;4.90;99.90;;;;;;5032559;28;20071;-92
2020/12/02 03:22:03;;;;;;;37.58;10.80;;;4.90;99.90;;;;;;5032397;28;20026;-91
2020/12/02 03:24:29;;;;;;;26.35;8.35;;;4.90;99.90;;;;;;5032438;28;20528;-92
2020/12/02 03:26:55;;;;;;;24.95;8.73;;;4.90;99.90;;;;;;5032051;28;20041;-91
2020/12/02 03:29:22;;;;;;;28.80;8.95;;;4.90;99.90;;;;;;5032374;28;20033;-91
2020/12/02 03:31:48;;;;;;;34.55;9.43;;;4.90;99.90;;;;;;5032142;28;20571;-91
2020/12/02 03:34:16;;;;;;;26.98;10.30;;;4.90;99.90;;;;;;5031644;28;20049;-91
2020/12/02 03:36:42;;;;;;;25.25;8.23;;;4.90;99.90;;;;;;5032066;28;20026;-92
2020/12/02 03:39:10;;;;;;;23.42;9.07;;;4.90;99.90;;;;;;5032224;28;20039;-93
2020/12/02 03:41:38;;;;;;;28.92;9.27;;;4.90;99.90;;;;;;5032335;28;20024;-92
2020/12/02 03:44:04;;;;;;;35.03;9.15;;;5.00;99.90;;;;;;5034091;28;20029;-92
2020/12/02 03:46:29;;;;;;;24.75;8.05;;;4.90;99.90;;;;;;5031950;28;20060;-92
2020/12/02 03:48:55;;;;;;;40.88;9.98;;;4.90;99.90;;;;;;5032029;28;20040;-92
2020/12/02 03:51:21;;;;;;;40.20;11.80;;;4.90;99.90;;;;;;5031635;28;20116;-92
2020/12/02 03:53:47;;;;;;;31.35;10.18;;;4.90;99.90;;;;;;5031788;28;20025;-92
2020/12/02 03:56:14;;;;;;;29.85;10.35;;;4.90;99.90;;;;;;5031666;28;20034;-92
2020/12/02 03:58:40;;;;;;;35.70;10.10;;;4.90;99.90;;;;;;5031732;28;20029;-92
2020/12/02 04:01:07;;;;;;;28.70;9.18;;;4.90;99.90;;;;;;5031675;28;20052;-91
2020/12/02 04:03:33;;;;;;;34.15;10.40;;;5.00;99.90;;;;;;5031363;28;20034;-92
2020/12/02 04:05:58;;;;;;;37.45;11.00;;;5.00;99.90;;;;;;5031692;28;20585;-92
2020/12/02 04:08:24;;;;;;;23.27;8.15;;;5.00;99.90;;;;;;5031735;28;20029;-93
2020/12/02 04:10:50;;;;;;;25.50;11.13;;;5.00;99.90;;;;;;5031504;28;20029;-92
2020/12/02 04:13:15;;;;;;;24.40;10.35;;;5.00;99.90;;;;;;5031748;28;20032;-92
2020/12/02 04:15:41;;;;;;;36.67;11.27;;;5.10;99.90;;;;;;5031525;28;20184;-92
2020/12/02 04:18:06;;;;;;;32.65;10.63;;;5.10;99.90;;;;;;5031247;28;20033;-92
2020/12/02 04:20:32;;;;;;;28.13;11.20;;;5.10;99.90;;;;;;5031434;28;20038;-91
2020/12/02 04:22:58;;;;;;;25.80;10.95;;;5.00;99.90;;;;;;5031420;28;20112;-93
2020/12/02 04:25:25;;;;;;;29.83;11.57;;;5.00;99.90;;;;;;5031305;28;20124;-91
2020/12/02 04:27:52;;;;;;;29.52;11.35;;;5.00;99.90;;;;;;5031471;28;20029;-92
2020/12/02 04:30:18;;;;;;;30.67;10.77;;;5.00;99.90;;;;;;5031715;28;20025;-93
2020/12/02 04:32:45;;;;;;;28.55;10.20;;;4.90;99.90;;;;;;5031267;28;20155;-92
2020/12/02 04:35:11;;;;;;;28.35;10.70;;;4.90;99.90;;;;;;5031505;28;20042;-92
2020/12/02 04:37:37;;;;;;;28.38;10.60;;;4.90;99.90;;;;;;5031613;28;20470;-92
2020/12/02 04:40:09;;;;;;;35.35;11.63;;;4.80;99.90;;;;;;5031546;28;20083;-93
2020/12/02 04:42:41;;;;;;;27.63;10.55;;;4.80;99.90;;;;;;5031470;28;20040;-92
2020/12/02 04:45:07;;;;;;;42.20;11.57;;;4.70;99.90;;;;;;5030047;28;20069;-92
2020/12/02 04:47:40;;;;;;;34.28;12.00;;;4.70;99.90;;;;;;5031632;28;20369;-92
2020/12/02 04:50:21;;;;;;;28.30;10.95;;;4.70;99.90;;;;;;5032841;28;20025;-92
2020/12/02 04:53:12;;;;;;;26.98;11.45;;;4.70;99.90;;;;;;5031890;28;20041;-93
2020/12/02 04:55:40;;;;;;;34.63;11.52;;;4.70;99.90;;;;;;5031531;28;20116;-91
2020/12/02 04:58:34;;;;;;;30.63;11.38;;;4.70;99.90;;;;;;5031903;28;20748;-92
2020/12/02 05:01:28;;;;;;;26.73;11.15;;;4.70;99.90;;;;;;5014538;28;20045;-92
2020/12/02 05:03:57;;;;;;;23.38;10.43;;;4.70;99.90;;;;;;5031593;28;20049;-93
2020/12/02 05:06:37;;;;;;;28.92;12.07;;;4.70;99.90;;;;;;5031571;28;20045;-93
2020/12/02 05:09:17;;;;;;;27.98;11.10;;;4.70;99.90;;;;;;5030865;28;20041;-93
2020/12/02 05:12:00;;;;;;;28.05;11.50;;;4.70;99.90;;;;;;5015178;28;20486;-93
2020/12/02 05:14:35;;;;;;;46.88;13.57;;;4.70;99.90;;;;;;5031499;28;20044;-93
2020/12/02 05:17:20;;;;;;;29.67;11.63;;;4.70;99.90;;;;;;5031245;28;20025;-93
2020/12/02 05:20:03;;;;;;;26.58;11.20;;;4.70;99.90;;;;;;5031506;28;20117;-93
2020/12/02 05:22:32;;;;;;;36.85;12.10;;;4.70;99.90;;;;;;5031506;28;20084;-93
2020/12/02 05:25:00;;;;;;;26.92;12.30;;;4.70;99.90;;;;;;5031450;28;20120;-92
2020/12/02 05:27:31;;;;;;;30.67;12.02;;;4.80;99.90;;;;;;5014738;28;20041;-94
2020/12/02 05:30:28;;;;;;;25.90;12.23;;;4.80;99.90;;;;;;5033677;28;20028;-90
2020/12/02 05:33:10;;;;;;;47.63;13.15;;;4.80;99.90;;;;;;5035842;28;20614;-92
2020/12/02 05:35:42;;;;;;;26.67;11.05;;;4.80;99.90;;;;;;5034996;28;20049;-91
2020/12/02 05:38:10;;;;;;;29.48;12.50;;;4.80;99.90;;;;;;5034820;28;20033;-93
2020/12/02 05:40:37;;;;;;;34.20;12.52;;;4.80;99.90;;;;;;5034561;28;20029;-93
2020/12/02 05:43:27;;;;;;;29.40;12.68;;;4.80;99.90;;;;;;5034694;28;20029;-93
2020/12/02 05:45:53;;;;;;;36.45;14.45;;;4.80;99.90;;;;;;5034448;28;20453;-92
2020/12/02 05:48:31;;;;;;;32.67;13.40;;;4.80;99.90;;;;;;5035118;28;20028;-93
2020/12/02 05:50:57;;;;;;;33.20;13.73;;;4.80;99.90;;;;;;5018527;28;20083;-93
2020/12/02 05:53:47;;;;;;;34.33;13.75;;;4.80;99.90;;;;;;5034917;28;20022;-92
2020/12/02 05:56:13;;;;;;;21.55;10.20;;;4.80;99.90;;;;;;5038277;28;20029;-91
2020/12/02 05:58:41;;;;;;;40.85;13.75;;;4.90;99.90;;;;;;5045019;28;20064;-93
2020/12/02 06:01:12;;;;;;;24.50;11.25;;;4.90;99.90;;;;;;5044838;28;20025;-93
2020/12/02 06:03:39;;;;;;;21.95;10.60;;;4.90;99.90;;;;;;5036454;28;20026;-93
2020/12/02 06:06:11;;;;;;;41.42;13.32;;;4.90;99.90;;;;;;5034453;28;20090;-92
2020/12/02 06:08:46;;;;;;;21.98;11.48;;;4.90;99.90;;;;;;5036433;28;20036;-92
2020/12/02 06:11:15;;;;;;;23.17;9.43;;;4.90;99.90;;;;;;5034337;28;20018;-92
2020/12/02 06:13:50;;;;;;;21.98;10.13;;;5.00;99.90;;;;;;5033071;28;20028;-91
2020/12/02 06:16:46;;;;;;;31.38;16.63;;;5.00;99.90;;;;;;5033852;28;20028;-92
2020/12/02 06:19:44;;;;;;;28.48;13.05;;;5.10;99.90;;;;;;4998033;28;20018;-92
2020/12/02 06:22:10;;;;;;;44.83;19.20;;;5.10;99.90;;;;;;4997731;28;20034;-91
2020/12/02 06:24:46;;;;;;;24.83;11.50;;;5.20;99.90;;;;;;5010005;28;20617;-92
2020/12/02 06:27:15;;;;;;;32.28;15.25;;;5.20;99.90;;;;;;5030581;28;20029;-92
2020/12/02 06:29:57;;;;;;;20.88;10.38;;;5.20;99.90;;;;;;5033134;28;20018;-93
2020/12/02 06:32:25;;;;;;;26.23;14.00;;;5.30;99.90;;;;;;5016124;28;20108;-92
2020/12/02 06:35:07;;;;;;;49.38;23.33;;;5.40;99.90;;;;;;5033153;28;20057;-91
2020/12/02 06:37:33;;;;;;;50.58;28.10;;;5.40;99.90;;;;;;5033729;28;20017;-92
2020/12/02 06:40:00;;;;;;;50.33;24.95;;;5.50;99.90;;;;;;5033694;28;20501;-93
2020/12/02 06:42:30;;;;;;;59.53;26.52;;;5.50;99.90;;;;;;5017400;28;20029;-92
2020/12/02 06:45:30;;;;;;;45.88;23.10;;;5.60;99.90;;;;;;5016581;28;20041;-93
2020/12/02 06:48:03;;;;;;;57.50;25.08;;;5.60;99.90;;;;;;5031728;28;20497;-93
2020/12/02 06:50:34;;;;;;;40.20;20.60;;;5.70;99.90;;;;;;5032717;28;20137;-92
2020/12/02 06:53:21;;;;;;;47.70;24.10;;;5.90;99.90;;;;;;5031943;28;20494;-93
2020/12/02 06:55:49;;;;;;;52.78;27.75;;;5.90;99.90;;;;;;5032564;28;20136;-93
2020/12/02 06:58:17;;;;;;;61.15;26.02;;;6.00;99.90;;;;;;5033059;28;20028;-93
2020/12/02 07:00:49;;;;;;;50.13;26.52;;;6.10;99.90;;;;;;5032946;28;20172;-93
2020/12/02 07:03:17;;;;;;;57.97;26.50;;;6.10;99.90;;;;;;5029084;28;20564;-93
2020/12/02 07:05:44;;;;;;;44.55;21.52;;;6.10;99.90;;;;;;5031837;28;20028;-93
2020/12/02 07:08:32;;;;;;;61.45;28.95;;;6.20;99.90;;;;;;5022147;28;20043;-93
2020/12/02 07:11:12;;;;;;;56.05;27.40;;;6.20;99.90;;;;;;5033065;28;20022;-93
2020/12/02 07:13:41;;;;;;;50.83;24.65;;;6.30;99.90;;;;;;5024557;28;20040;-92
2020/12/02 07:16:19;;;;;;;53.70;27.08;;;6.40;99.90;;;;;;5033153;28;20068;-92
2020/12/02 07:18:54;;;;;;;39.72;21.33;;;6.40;99.90;;;;;;5032871;28;20056;-92
2020/12/02 07:21:26;;;;;;;53.10;22.27;;;6.40;99.90;;;;;;5033063;28;20096;-92
2020/12/02 07:23:54;;;;;;;52.35;25.35;;;6.40;99.90;;;;;;5030624;28;20123;-92
2020/12/02 07:26:24;;;;;;;52.08;24.63;;;6.50;99.90;;;;;;5032944;28;20247;-92
2020/12/02 07:28:57;;;;;;;50.13;24.90;;;6.50;99.90;;;;;;5030634;28;20053;-92
2020/12/02 07:31:26;;;;;;;47.33;25.23;;;6.50;99.90;;;;;;5032634;28;20025;-92
2020/12/02 07:34:17;;;;;;;42.58;22.98;;;6.60;99.90;;;;;;5032622;28;20045;-91
2020/12/02 07:36:43;;;;;;;49.00;23.55;;;6.60;99.90;;;;;;5031644;28;20036;-93
2020/12/02 07:39:19;;;;;;;46.28;22.13;;;6.70;99.90;;;;;;5031814;28;20109;-91
2020/12/02 07:42:03;;;;;;;37.15;19.70;;;6.70;99.90;;;;;;5031899;28;20052;-91
2020/12/02 07:44:33;;;;;;;41.28;20.58;;;6.70;99.90;;;;;;5032193;28;20479;-93
2020/12/02 07:47:01;;;;;;;;;;;6.70;99.90;;;;;;5032513;28;20108;-92
2020/12/02 07:49:27;;;;;;;32.92;16.42;;;6.70;99.90;;;;;;5031112;28;20354;-93
2020/12/02 07:52:09;;;;;;;35.05;18.02;;;6.70;99.90;;;;;;5026517;28;20029;-94
2020/12/02 07:54:35;;;;;;;39.03;19.90;;;6.70;99.90;;;;;;5031651;28;20079;-94
2020/12/02 07:57:02;;;;;;;37.67;20.15;;;6.80;99.90;;;;;;5028414;28;20104;-90
2020/12/02 07:59:32;;;;;;;40.28;18.98;;;6.80;99.90;;;;;;5029438;28;20108;-93
2020/12/02 08:01:58;;;;;;;35.22;19.13;;;6.80;99.90;;;;;;5030690;28;20029;-92
2020/12/02 08:04:24;;;;;;;40.85;18.05;;;6.80;99.90;;;;;;5031112;28;20049;-94
2020/12/02 08:06:56;;;;;;;33.15;16.48;;;6.80;99.90;;;;;;5031185;28;20068;-93
2020/12/02 08:09:22;;;;;;;33.75;15.93;;;6.80;99.90;;;;;;5032609;28;20073;-92
2020/12/02 08:11:58;;;;;;;33.60;15.82;;;6.80;99.90;;;;;;5030918;28;20779;-91
2020/12/02 08:14:45;;;;;;;34.17;16.15;;;6.90;99.90;;;;;;5027517;28;20029;-93
2020/12/02 08:17:24;;;;;;;33.72;14.38;;;6.90;99.90;;;;;;5012324;28;20099;-91
2020/12/02 08:19:52;;;;;;;24.05;12.93;;;6.90;99.90;;;;;;5031451;28;20494;-93
2020/12/02 08:22:38;;;;;;;24.30;12.13;;;7.00;99.90;;;;;;5031268;28;20060;-92
2020/12/02 08:25:21;;;;;;;26.83;12.95;;;6.90;99.90;;;;;;5013100;28;20478;-93
2020/12/02 08:27:54;;;;;;;26.02;14.30;;;6.90;99.90;;;;;;5030505;28;20029;-91
2020/12/02 08:30:23;;;;;;;18.70;10.15;;;6.90;99.90;;;;;;5030976;28;20025;-92
2020/12/02 08:33:06;;;;;;;16.35;8.52;;;6.90;99.90;;;;;;5030991;28;20025;-91
2020/12/02 08:35:34;;;;;;;13.43;7.63;;;6.90;99.90;;;;;;5014246;28;20048;-91
2020/12/02 08:38:01;;;;;;;9.63;5.47;;;7.00;99.90;;;;;;5032404;28;20080;-92
2020/12/02 08:40:35;;;;;;;12.93;7.50;;;7.00;99.90;;;;;;5031136;28;20108;-92
2020/12/02 08:43:27;;;;;;;13.68;7.40;;;7.00;99.90;;;;;;5010205;28;20081;-92
2020/12/02 08:46:00;;;;;;;8.02;4.82;;;7.00;99.90;;;;;;5030757;28;20034;-92
2020/12/02 08:48:26;;;;;;;8.73;4.78;;;7.00;99.90;;;;;;5031892;28;20026;-92
2020/12/02 08:50:51;;;;;;;12.90;7.35;;;7.10;99.90;;;;;;5032548;28;20128;-91
2020/12/02 08:53:23;;;;;;;16.35;10.07;;;7.10;99.90;;;;;;5039531;28;20072;-91
2020/12/02 08:55:48;;;;;;;28.13;16.95;;;7.10;99.90;;;;;;5035407;28;20160;-91
2020/12/02 08:58:14;;;;;;;33.58;18.02;;;7.10;99.90;;;;;;5032221;28;20091;-89
2020/12/02 09:00:40;;;;;;;32.22;18.85;;;7.20;99.90;;;;;;5032177;28;20030;-90
2020/12/02 09:03:05;;;;;;;22.60;14.40;;;7.20;99.90;;;;;;5032356;28;20022;-92
2020/12/02 09:05:32;;;;;;;20.63;12.57;;;7.20;99.90;;;;;;5035684;28;20036;-92
2020/12/02 09:07:57;;;;;;;17.23;9.70;;;7.20;99.90;;;;;;5035637;28;20068;-92
2020/12/02 09:10:23;;;;;;;20.48;10.18;;;7.20;99.90;;;;;;5036195;28;20022;-92
2020/12/02 09:12:49;;;;;;;17.05;8.70;;;7.20;99.90;;;;;;5035421;28;20025;-92
2020/12/02 09:15:15;;;;;;;14.75;8.73;;;7.20;99.90;;;;;;5035909;28;20022;-92
2020/12/02 09:17:40;;;;;;;10.63;6.18;;;7.20;99.90;;;;;;5035694;28;20033;-91
2020/12/02 09:20:06;;;;;;;9.23;5.80;;;7.20;99.90;;;;;;5036042;28;20036;-92
2020/12/02 09:22:32;;;;;;;15.85;9.15;;;7.30;99.90;;;;;;5035374;28;20022;-92
2020/12/02 09:24:58;;;;;;;10.23;6.63;;;7.30;99.90;;;;;;5035539;28;20364;-93
2020/12/02 09:27:23;;;;;;;9.52;4.75;;;7.40;99.90;;;;;;5035659;28;20034;-90
2020/12/02 09:29:49;;;;;;;10.55;5.97;;;7.40;99.90;;;;;;5035442;28;20026;-92
2020/12/02 09:32:15;;;;;;;10.13;6.32;;;7.40;99.90;;;;;;5035089;28;20052;-92
2020/12/02 09:34:40;;;;;;;14.68;8.00;;;7.50;99.90;;;;;;5035328;28;20521;-92
2020/12/02 09:37:13;;;;;;;16.05;10.10;;;7.40;99.90;;;;;;5035327;28;20402;-92
2020/12/02 09:39:40;;;;;;;14.85;9.35;;;7.50;99.90;;;;;;5035665;28;20027;-92
2020/12/02 09:42:17;;;;;;;16.83;10.10;;;7.50;99.90;;;;;;5034719;28;20491;-91
2020/12/02 09:44:57;;;;;;;14.30;7.45;;;7.50;99.90;;;;;;5016447;28;20118;-92
2020/12/02 09:47:23;;;;;;;14.37;7.40;;;7.50;99.90;;;;;;5034971;28;20033;-91
2020/12/02 09:49:49;;;;;;;14.60;8.23;;;7.50;99.90;;;;;;5018408;28;20270;-91
2020/12/02 09:52:34;;;;;;;19.42;9.77;;;7.50;99.90;;;;;;5034648;28;20470;-91
2020/12/02 09:55:01;;;;;;;23.48;12.68;;;7.50;99.90;;;;;;5018401;28;20242;-93
2020/12/02 09:57:29;;;;;;;29.17;15.15;;;7.50;99.90;;;;;;5035457;28;20040;-92
2020/12/02 09:59:57;;;;;;;26.95;14.55;;;7.50;99.90;;;;;;5035530;28;20049;-91
2020/12/02 10:02:50;;;;;;;27.30;13.57;;;7.50;99.90;;;;;;5036194;28;20075;-91
2020/12/02 10:05:40;;;;;;;26.88;12.63;;;7.50;99.90;;;;;;5035935;28;20030;-92
2020/12/02 10:08:18;;;;;;;24.88;12.60;;;7.50;99.90;;;;;;5010899;28;20036;-93
2020/12/02 10:11:02;;;;;;;21.92;11.32;;;7.50;99.90;;;;;;5039287;28;20198;-92
2020/12/02 10:13:58;;;;;;;18.58;11.18;;;7.50;99.90;;;;;;5027752;28;20029;-92
2020/12/02 10:16:53;;;;;;;26.23;15.05;;;7.50;99.90;;;;;;5026194;28;20474;-92
2020/12/02 10:19:30;;;;;;;27.73;14.65;;;7.60;99.90;;;;;;5035738;28;20052;-92
2020/12/02 10:22:11;;;;;;;19.30;11.57;;;7.60;99.90;;;;;;5025553;28;20014;-91
2020/12/02 10:24:57;;;;;;;;;;;7.60;99.90;;;;;;5034161;28;20044;-93
2020/12/02 10:27:51;;;;;;;18.98;11.35;;;7.60;99.90;;;;;;4986604;28;19913;-92
2020/12/02 10:30:27;;;;;;;25.50;13.15;;;7.60;99.90;;;;;;5023505;28;20491;-91
2020/12/02 10:33:10;;;;;;;21.88;12.82;;;7.60;99.90;;;;;;5032905;28;20467;-91
2020/12/02 10:35:39;;;;;;;24.75;14.30;;;7.60;99.90;;;;;;5023652;28;20081;-91
2020/12/02 10:38:09;;;;;;;18.45;9.38;;;7.60;99.90;;;;;;5030298;28;20053;-92
2020/12/02 10:40:41;;;;;;;21.48;13.10;;;7.60;99.90;;;;;;5025242;28;20112;-92
2020/12/02 10:43:23;;;;;;;18.67;11.60;;;7.60;99.90;;;;;;5031486;28;20041;-93
2020/12/02 10:45:51;;;;;;;19.13;10.27;;;7.60;99.90;;;;;;5031580;28;20041;-91
2020/12/02 10:48:40;;;;;;;18.92;9.88;;;7.60;99.90;;;;;;5033348;28;20025;-93
2020/12/02 10:51:11;;;;;;;10.00;6.63;;;7.70;99.90;;;;;;5025180;28;20060;-92
2020/12/02 10:53:37;;;;;;;6.97;3.35;;;7.70;99.90;;;;;;5035193;28;20025;-92
2020/12/02 10:56:03;;;;;;;6.35;4.07;;;7.80;99.90;;;;;;5021768;28;20083;-92
2020/12/02 10:58:29;;;;;;;7.40;4.97;;;7.80;99.90;;;;;;5029890;28;20037;-91
2020/12/02 11:01:01;;;;;;;4.93;3.10;;;7.90;99.90;;;;;;5029819;28;20028;-91
2020/12/02 11:03:30;;;;;;;4.60;3.22;;;7.90;99.90;;;;;;5030795;28;20383;-92
2020/12/02 11:06:06;;;;;;;5.20;3.50;;;7.90;99.90;;;;;;5021498;28;20091;-93
2020/12/02 11:08:54;;;;;;;5.57;3.28;;;7.90;99.90;;;;;;5030818;28;20037;-92
2020/12/02 11:11:30;;;;;;;5.80;2.90;;;7.90;99.90;;;;;;5022990;28;20053;-92
2020/12/02 11:14:05;;;;;;;4.47;3.28;;;7.90;99.90;;;;;;5021542;28;20029;-91
2020/12/02 11:17:09;;;;;;;5.18;3.65;;;8.00;99.90;;;;;;5014158;28;20033;-93
2020/12/02 11:19:42;;;;;;;6.40;3.78;;;8.00;99.90;;;;;;5006755;28;20049;-92
2020/12/02 11:22:42;;;;;;;8.27;4.25;;;8.00;99.90;;;;;;5029624;28;20024;-92
2020/12/02 11:25:15;;;;;;;5.65;3.45;;;8.10;99.90;;;;;;5013733;28;20037;-93
2020/12/02 11:27:42;;;;;;;5.97;3.85;;;8.10;99.90;;;;;;5021262;28;20029;-91
2020/12/02 11:30:18;;;;;;;6.25;3.55;;;8.10;99.90;;;;;;5030113;28;20199;-92
2020/12/02 11:33:02;;;;;;;6.85;4.38;;;8.10;99.90;;;;;;5019877;28;20033;-92
2020/12/02 11:35:43;;;;;;;6.07;3.45;;;8.10;99.90;;;;;;5029482;28;20100;-92
2020/12/02 11:38:21;;;;;;;;;;;8.10;99.90;;;;;;5030343;28;20025;-92
2020/12/02 11:40:57;;;;;;;4.57;2.20;;;8.10;99.90;;;;;;5029936;28;19924;-92
2020/12/02 11:43:40;;;;;;;2.13;1.67;;;8.10;99.90;;;;;;5021924;28;20029;-92
2020/12/02 11:46:12;;;;;;;3.28;1.27;;;8.10;99.90;;;;;;5022595;28;20033;-93
2020/12/02 11:48:42;;;;;;;1.27;0.60;;;8.00;99.90;;;;;;5022491;28;20033;-92
2020/12/02 11:51:36;;;;;;;3.55;0.88;;;8.00;99.90;;;;;;5030162;28;20025;-91
2020/12/02 11:54:11;;;;;;;4.43;0.80;;;7.90;99.90;;;;;;5019940;28;20112;-92
2020/12/02 11:56:47;;;;;;;1.75;0.55;;;7.90;99.90;;;;;;5029030;28;20037;-92
2020/12/02 11:59:23;;;;;;;2.17;0.70;;;7.80;99.90;;;;;;5029535;28;20388;-91
2020/12/02 12:01:53;;;;;;;2.63;0.68;;;7.70;99.90;;;;;;5028345;28;20384;-92
2020/12/02 12:04:35;;;;;;;4.65;0.70;;;7.70;99.90;;;;;;5029246;28;20121;-91
2020/12/02 12:07:18;;;;;;;4.95;0.40;;;7.70;99.90;;;;;;5019329;28;20506;-91
2020/12/02 12:10:02;;;;;;;1.95;0.60;;;7.60;99.90;;;;;;5029279;28;20037;-91
2020/12/02 12:13:03;;;;;;;1.30;0.47;;;7.60;99.90;;;;;;5028069;28;20195;-91
2020/12/02 12:15:36;;;;;;;1.42;0.50;;;7.60;99.90;;;;;;5020950;28;20021;-91
2020/12/02 12:18:15;;;;;;;1.85;0.77;;;7.60;99.90;;;;;;5022367;28;20033;-92
2020/12/02 12:20:50;;;;;;;3.22;0.77;;;7.60;99.90;;;;;;5030580;28;20018;-91
2020/12/02 12:23:37;;;;;;;1.55;0.52;;;7.80;99.90;;;;;;5019821;28;20025;-91
2020/12/02 12:26:08;;;;;;;5.43;0.82;;;8.20;99.90;;;;;;5037036;28;20040;-91
2020/12/02 12:28:34;;;;;;;5.97;1.50;;;9.00;99.90;;;;;;5029185;28;20565;-92
2020/12/02 12:31:07;;;;;;;6.75;1.45;;;9.50;99.90;;;;;;5025100;28;20144;-91
2020/12/02 12:33:32;;;;;;;10.55;1.25;;;9.80;99.90;;;;;;5028414;28;20061;-91
2020/12/02 12:36:03;;;;;;;8.73;1.45;;;9.90;99.90;;;;;;5021433;28;20068;-91
2020/12/02 12:38:35;;;;;;;9.02;1.40;;;10.00;99.90;;;;;;5024287;28;20071;-91
2020/12/02 12:41:25;;;;;;;8.73;1.40;;;10.10;99.90;;;;;;5033274;28;20036;-91
2020/12/02 12:44:00;;;;;;;12.48;1.90;;;10.50;99.90;;;;;;5025058;28;20025;-91
2020/12/02 12:47:02;;;;;;;13.70;2.08;;;11.10;99.90;;;;;;5025174;28;20047;-92
2020/12/02 12:49:30;;;;;;;16.92;1.98;;;11.60;99.90;;;;;;5004494;28;20051;-92
2020/12/02 12:51:58;;;;;;;15.40;1.85;;;11.80;99.90;;;;;;5026277;28;20462;-91
2020/12/02 12:54:24;;;;;;;17.50;4.25;;;11.80;99.40;;;;;;5025308;28;20014;-91
2020/12/02 12:56:52;;;;;;;17.55;2.50;;;11.50;99.20;;;;;;5036939;28;20029;-92
2020/12/02 12:59:19;;;;;;;14.30;2.35;;;11.20;99.40;;;;;;5025229;28;20108;-91
2020/12/02 13:01:50;;;;;;;18.13;2.67;;;10.80;99.90;;;;;;5034148;28;20437;-91
2020/12/02 13:04:19;;;;;;;17.30;2.63;;;10.40;99.90;;;;;;5033586;28;20018;-91
2020/12/02 13:07:11;;;;;;;27.08;3.05;;;10.20;99.90;;;;;;5033298;28;20068;-90
2020/12/02 13:10:14;;;;;;;15.40;2.03;;;10.10;99.90;;;;;;5033533;28;20037;-91
2020/12/02 13:13:02;;;;;;;13.65;2.40;;;10.10;99.90;;;;;;5024609;28;20466;-91